Time;durP1;ratioP1;P1;durP2;ratioP2;P2;SDS_P1;SDS_P2;PMS_P1;PMS_P2;Temp;Humidity;BMP_temperature;BMP_pressure;BME280_temperature;BME280_humidity;BME280_pressure;Samples;Min_cycle;Max_cycle;Signal;HPM_P1;HPM_P2
2021/10/06 00:02:34;;;;;;;5.53;3.35;;;;;;;10.83;74.12;99709.22;8658680;33;20137;-74
2021/10/06 00:07:37;;;;;;;7.80;3.33;;;;;;;10.59;74.96;99723.06;8658792;33;20189;-74
2021/10/06 00:12:42;;;;;;;6.60;2.90;;;;;;;10.48;74.97;99722.34;8659206;33;20192;-73
2021/10/06 00:17:45;;;;;;;5.47;2.88;;;;;;;10.59;74.32;99730.28;8658323;33;20643;-74
2021/10/06 00:22:48;;;;;;;3.35;2.33;;;;;;;10.75;74.25;99727.00;8658451;33;20223;-73
2021/10/06 00:27:52;;;;;;;5.13;2.97;;;;;;;10.53;74.83;99733.50;8657264;33;20633;-73
2021/10/06 00:32:55;;;;;;;3.90;3.00;;;;;;;10.63;74.65;99736.19;8658347;33;20230;-74
2021/10/06 00:37:59;;;;;;;4.85;2.35;;;;;;;10.43;75.11;99748.75;8658147;33;20306;-74
2021/10/06 00:43:03;;;;;;;6.05;2.78;;;;;;;10.59;74.17;99746.38;8658108;33;20192;-74
2021/10/06 00:48:07;;;;;;;4.65;3.38;;;;;;;10.64;74.02;99760.25;8658222;33;20156;-74
2021/10/06 00:53:10;;;;;;;4.95;3.33;;;;;;;10.65;73.84;99769.16;8657978;33;20601;-74
2021/10/06 00:58:14;;;;;;;6.32;3.33;;;;;;;10.72;73.75;99762.22;8657700;33;20184;-74
2021/10/06 01:03:21;;;;;;;6.35;2.90;;;;;;;10.73;73.31;99772.81;8657653;33;20432;-74
2021/10/06 01:08:25;;;;;;;3.90;2.55;;;;;;;10.74;73.41;99782.56;8657763;33;20139;-73
2021/10/06 01:13:29;;;;;;;6.97;3.22;;;;;;;10.50;73.82;99795.53;8657330;33;20180;-74
2021/10/06 01:18:32;;;;;;;4.93;3.25;;;;;;;10.40;74.78;99790.16;8657806;33;20267;-73
2021/10/06 01:23:37;;;;;;;5.65;3.60;;;;;;;10.68;73.66;99791.19;8657110;33;20203;-74
2021/10/06 01:28:40;;;;;;;5.40;3.72;;;;;;;10.69;73.47;99806.31;8657141;33;20834;-73
2021/10/06 01:33:43;;;;;;;6.07;3.88;;;;;;;10.53;74.60;99792.56;8656789;33;20196;-74
2021/10/06 01:38:48;;;;;;;5.60;3.85;;;;;;;10.57;74.16;99800.22;8682624;33;20188;-74
2021/10/06 01:43:51;;;;;;;5.95;3.88;;;;;;;10.51;74.77;99805.31;8637474;33;20198;-74
2021/10/06 01:48:54;;;;;;;5.82;4.07;;;;;;;10.46;75.20;99811.09;8661725;33;20279;-74
2021/10/06 01:53:58;;;;;;;9.63;4.30;;;;;;;10.53;74.79;99816.75;8661407;33;20196;-74
2021/10/06 01:59:01;;;;;;;4.80;3.80;;;;;;;10.52;74.74;99815.06;8661490;33;20141;-74
2021/10/06 02:04:05;;;;;;;4.75;3.60;;;;;;;10.28;75.53;99818.94;8661485;33;20173;-73
2021/10/06 02:09:09;;;;;;;6.57;4.53;;;;;;;10.49;74.73;99815.34;8661505;33;20183;-73
2021/10/06 02:14:13;;;;;;;5.88;4.30;;;;;;;10.46;74.67;99813.78;8660813;33;20849;-73
2021/10/06 02:19:17;;;;;;;6.18;4.30;;;;;;;10.25;74.80;99819.19;8661599;33;20278;-73
2021/10/06 02:24:21;;;;;;;8.68;4.60;;;;;;;10.20;75.05;99812.53;8660385;33;20223;-72
2021/10/06 02:29:24;;;;;;;5.75;4.45;;;;;;;10.01;75.67;99818.69;8636219;33;20531;-73
2021/10/06 02:34:27;;;;;;;7.00;4.40;;;;;;;10.14;75.03;99816.63;8660719;33;20191;-73
2021/10/06 02:39:31;;;;;;;8.43;5.07;;;;;;;10.19;74.80;99822.44;8660656;33;20276;-73
2021/10/06 02:44:34;;;;;;;9.15;3.72;;;;;;;9.88;75.68;99827.81;8660273;33;20198;-73
2021/10/06 02:49:38;;;;;;;8.48;5.18;;;;;;;9.96;75.11;99824.47;8659575;33;20661;-73
2021/10/06 02:54:42;;;;;;;7.00;4.50;;;;;;;10.09;74.90;99830.47;8659687;33;20188;-73
2021/10/06 02:59:45;;;;;;;7.18;4.13;;;;;;;10.23;74.25;99831.94;8660026;33;20315;-73
2021/10/06 03:04:48;;;;;;;9.00;5.00;;;;;;;10.22;73.90;99846.31;8659427;33;20192;-73
2021/10/06 03:09:53;;;;;;;10.57;4.57;;;;;;;10.08;74.51;99844.84;8660014;33;20681;-73
2021/10/06 03:14:56;;;;;;;7.03;4.45;;;;;;;10.13;74.24;99849.81;8659131;33;20184;-73
2021/10/06 03:19:59;;;;;;;7.47;4.25;;;;;;;10.17;73.89;99857.47;8657850;33;20191;-73
2021/10/06 03:25:05;;;;;;;5.80;4.15;;;;;;;10.06;73.84;99868.28;8656271;33;21952;-73
2021/10/06 03:30:10;;;;;;;7.88;4.40;;;;;;;9.84;74.53;99858.53;8656555;33;20188;-73
2021/10/06 03:35:18;;;;;;;7.40;4.50;;;;;;;9.84;74.12;99879.97;8652796;33;20255;-72
2021/10/06 03:40:22;;;;;;;7.75;3.83;;;;;;;9.88;73.80;99876.09;8656173;33;21470;-73
2021/10/06 03:45:26;;;;;;;5.78;3.85;;;;;;;9.85;73.58;99870.97;8656963;33;20229;-73
2021/10/06 03:50:29;;;;;;;8.23;4.32;;;;;;;9.86;73.20;99879.91;8657280;33;20180;-73
2021/10/06 03:55:34;;;;;;;9.38;4.22;;;;;;;9.80;73.41;99881.25;8656821;33;20512;-73
2021/10/06 04:00:38;;;;;;;6.47;3.65;;;;;;;10.00;72.49;99886.75;8657141;33;20188;-73
2021/10/06 04:05:42;;;;;;;9.07;4.10;;;;;;;9.96;72.38;99886.19;8632542;33;20168;-73
2021/10/06 04:10:46;;;;;;;6.18;3.72;;;;;;;9.91;72.41;99913.41;8656978;33;20149;-73
2021/10/06 04:15:49;;;;;;;5.22;3.55;;;;;;;9.99;71.93;99901.16;8656522;33;20490;-73
2021/10/06 04:20:52;;;;;;;5.28;3.58;;;;;;;10.08;71.46;99905.72;8656881;33;20416;-73
2021/10/06 04:25:56;;;;;;;5.53;3.08;;;;;;;10.11;70.90;99902.78;8656932;33;21077;-73
2021/10/06 04:31:00;;;;;;;7.15;3.33;;;;;;;10.10;70.62;99923.41;8657467;33;20271;-73
2021/10/06 04:36:03;;;;;;;10.23;3.80;;;;;;;10.22;70.37;99916.09;8656519;33;20283;-73
2021/10/06 04:41:08;;;;;;;7.00;3.25;;;;;;;10.44;69.56;99923.13;8656420;33;21682;-73
2021/10/06 04:46:11;;;;;;;5.75;3.75;;;;;;;10.32;69.75;99932.28;8655599;33;20661;-73
2021/10/06 04:51:14;;;;;;;8.48;3.65;;;;;;;10.20;70.25;99923.44;8656398;33;20354;-73
2021/10/06 04:56:18;;;;;;;5.60;3.25;;;;;;;10.03;70.47;99924.06;8655717;33;20533;-73
2021/10/06 05:01:21;;;;;;;6.53;3.05;;;;;;;10.28;69.46;99937.03;8656424;33;20194;-73
2021/10/06 05:06:25;;;;;;;4.75;3.40;;;;;;;10.10;69.95;99935.97;8656202;33;20598;-74
2021/10/06 05:11:29;;;;;;;4.40;3.00;;;;;;;10.13;69.79;99939.22;8657201;33;20165;-74
2021/10/06 05:16:32;;;;;;;5.35;3.10;;;;;;;10.16;69.95;99944.34;8660229;33;20322;-74
2021/10/06 05:21:35;;;;;;;6.67;3.07;;;;;;;10.23;69.35;99950.03;8660348;33;20356;-74
2021/10/06 05:26:40;;;;;;;6.57;3.03;;;;;;;10.16;69.38;99963.13;8660277;33;20223;-75
2021/10/06 05:31:43;;;;;;;6.40;2.75;;;;;;;10.07;69.52;99973.81;8660612;33;22885;-73
2021/10/06 05:36:46;;;;;;;4.18;2.83;;;;;;;10.19;68.83;99958.47;8635272;33;20188;-73
2021/10/06 05:41:50;;;;;;;4.03;2.88;;;;;;;10.13;68.39;99963.38;8660339;33;20184;-73
2021/10/06 05:46:53;;;;;;;4.15;2.65;;;;;;;10.17;68.69;99964.84;8660226;33;20215;-72
2021/10/06 05:51:56;;;;;;;3.78;3.08;;;;;;;10.23;68.70;99968.84;8660190;33;20232;-74
2021/10/06 05:57:01;;;;;;;4.32;2.53;;;;;;;10.27;68.25;99975.63;8659641;33;21151;-72
2021/10/06 06:02:04;;;;;;;3.67;2.45;;;;;;;10.17;68.71;99977.38;8659332;33;20219;-73
2021/10/06 06:07:07;;;;;;;3.50;2.45;;;;;;;10.31;68.29;99984.25;8659178;33;20676;-73
2021/10/06 06:12:11;;;;;;;3.65;2.45;;;;;;;10.30;68.24;99991.47;8659685;33;20192;-73
2021/10/06 06:17:14;;;;;;;7.95;2.42;;;;;;;10.27;67.68;100001.63;8659920;33;20431;-73
2021/10/06 06:22:17;;;;;;;6.10;2.25;;;;;;;10.27;68.34;99994.41;8659532;33;20491;-73
2021/10/06 06:27:21;;;;;;;3.03;2.13;;;;;;;10.41;67.86;100003.13;8659570;33;20431;-72
2021/10/06 06:32:24;;;;;;;1.88;1.75;;;;;;;10.23;68.48;100019.84;8659449;33;20349;-73
2021/10/06 06:37:27;;;;;;;4.07;1.73;;;;;;;10.05;68.30;100006.13;8659623;33;20165;-73
2021/10/06 06:42:32;;;;;;;5.35;3.42;;;;;;;10.43;67.71;100014.56;8659788;33;20290;-72
2021/10/06 06:47:36;;;;;;;3.10;1.70;;;;;;;10.38;67.81;100021.19;8657972;33;20276;-72
2021/10/06 06:52:39;;;;;;;5.85;2.33;;;;;;;10.15;68.48;100017.78;8657882;33;20192;-72
2021/10/06 06:57:43;;;;;;;4.72;1.95;;;;;;;10.52;67.85;100017.31;8656621;33;20186;-72
2021/10/06 07:02:46;;;;;;;2.58;1.80;;;;;;;10.84;66.04;100014.50;8657216;33;20448;-72
2021/10/06 07:07:49;;;;;;;2.28;2.08;;;;;;;11.13;65.34;100029.91;8658654;33;20429;-72
2021/10/06 07:12:53;;;;;;;2.35;1.63;;;;;;;11.26;64.55;100026.97;8679480;33;20200;-72
2021/10/06 07:17:58;;;;;;;7.68;2.03;;;;;;;11.01;65.50;100025.59;8657942;33;20598;-72
2021/10/06 07:23:01;;;;;;;2.35;1.60;;;;;;;11.14;65.44;100038.84;8657748;33;20180;-72
2021/10/06 07:28:05;;;;;;;7.55;2.05;;;;;;;10.95;66.05;100037.75;8657555;33;20696;-72
2021/10/06 07:33:08;;;;;;;3.55;1.92;;;;;;;10.95;65.48;100045.81;8656886;33;20176;-73
2021/10/06 07:38:12;;;;;;;5.03;2.22;;;;;;;11.07;65.43;100051.91;8657236;33;20218;-73
2021/10/06 07:43:16;;;;;;;4.10;1.45;;;;;;;11.41;64.46;100057.00;8656825;33;20203;-73
2021/10/06 07:48:19;;;;;;;4.40;1.80;;;;;;;11.06;65.28;100069.88;8642062;33;21579;-73
2021/10/06 07:53:22;;;;;;;3.97;1.77;;;;;;;11.21;65.09;100069.53;8714414;33;20233;-73
2021/10/06 07:58:27;;;;;;;4.68;2.00;;;;;;;11.50;63.76;100075.88;8714693;33;20198;-73
2021/10/06 08:03:30;;;;;;;3.47;1.60;;;;;;;11.54;63.65;100081.81;8714560;33;20207;-73
2021/10/06 08:08:33;;;;;;;4.22;1.70;;;;;;;11.78;63.03;100077.91;8715442;33;20976;-73
2021/10/06 08:13:38;;;;;;;3.13;2.10;;;;;;;11.58;62.58;100099.41;8673815;33;20456;-73
2021/10/06 08:18:41;;;;;;;2.53;1.45;;;;;;;11.34;63.13;100094.38;8657091;33;20187;-73
2021/10/06 08:23:44;;;;;;;0.88;0.88;;;;;;;11.17;63.35;100100.41;8631508;33;20681;-73
2021/10/06 08:28:48;;;;;;;2.60;1.77;;;;;;;11.67;62.11;100095.88;8657400;33;21331;-73
2021/10/06 08:33:52;;;;;;;3.45;1.52;;;;;;;11.71;61.74;100117.94;8655872;33;20185;-73
2021/10/06 08:38:56;;;;;;;3.65;1.70;;;;;;;11.77;61.89;100113.88;8657647;33;20184;-73
2021/10/06 08:44:02;;;;;;;2.28;2.08;;;;;;;11.50;62.87;100120.75;8655475;33;20252;-73
2021/10/06 08:49:06;;;;;;;3.35;1.52;;;;;;;11.81;61.20;100131.44;8670019;33;20187;-73
2021/10/06 09:01:25;;;;;;;5.95;1.77;;;;;;;11.87;61.18;100130.88;8667116;33;20184;-73
2021/10/06 09:06:39;;;;;;;3.35;1.48;;;;;;;11.57;61.33;100138.03;8634839;33;20639;-74
2021/10/06 09:11:43;;;;;;;3.17;1.45;;;;;;;11.35;61.12;100149.00;8660115;33;20184;-73
2021/10/06 09:16:48;;;;;;;3.40;1.73;;;;;;;11.09;63.37;100164.69;8659952;33;20180;-73
2021/10/06 09:21:55;;;;;;;2.38;2.10;;;;;;;10.70;67.76;100168.00;8637729;33;20289;-73
2021/10/06 09:27:06;;;;;;;4.43;2.22;;;;;;;10.51;68.64;100166.00;8661676;33;20188;-73
2021/10/06 09:32:22;;;;;;;3.13;2.10;;;;;;;10.10;71.26;100180.19;8662257;33;20724;-73
2021/10/06 09:37:25;;;;;;;3.95;1.95;;;;;;;9.87;73.10;100193.66;8723275;28;20712;-78
2021/10/06 09:42:28;;;;;;;2.45;1.85;;;;;;;9.48;71.89;100192.31;8567265;33;20189;-78
2021/10/06 09:47:35;;;;;;;2.17;1.58;;;;;;;9.85;71.52;100197.41;8550799;33;20157;-76
2021/10/06 09:52:39;;;;;;;1.67;0.95;;;;;;;9.87;69.53;100209.75;8570028;33;20200;-76
2021/10/06 09:57:43;;;;;;;1.48;1.38;;;;;;;10.27;70.18;100190.38;8573140;33;20446;-77
2021/10/06 10:02:48;;;;;;;2.22;1.27;;;;;;;10.04;67.86;100196.78;8593084;33;20134;-77
2021/10/06 10:07:53;;;;;;;1.10;1.10;;;;;;;10.63;67.28;100201.72;8599292;33;20457;-77
2021/10/06 10:12:57;;;;;;;2.30;1.30;;;;;;;11.34;65.48;100218.06;8555161;33;20243;-76
2021/10/06 10:18:05;;;;;;;3.60;1.50;;;;;;;11.08;64.24;100214.03;8537155;34;20777;-77
2021/10/06 10:23:12;;;;;;;1.30;1.20;;;;;;;11.27;64.48;100224.94;8556222;34;20298;-79
2021/10/06 10:28:17;;;;;;;1.45;1.33;;;;;;;11.31;63.18;100228.25;8552629;34;20230;-76
2021/10/06 10:33:39;;;;;;;3.22;1.42;;;;;;;11.28;63.71;100216.75;8535121;34;20239;-77
2021/10/06 10:38:42;;;;;;;2.88;1.15;;;;;;;11.06;62.65;100230.31;8549471;34;21925;-76
2021/10/06 10:43:58;;;;;;;1.48;1.23;;;;;;;11.02;62.70;100224.34;8549978;34;20139;-77
2021/10/06 10:49:07;;;;;;;1.40;1.25;;;;;;;10.95;62.93;100235.75;8556495;34;20588;-76
2021/10/06 10:54:11;;;;;;;2.08;1.40;;;;;;;11.29;63.01;100247.19;8581207;33;20150;-78
2021/10/06 10:59:18;;;;;;;1.90;1.42;;;;;;;11.28;64.36;100251.72;8579229;33;20137;-78
2021/10/06 11:04:30;;;;;;;1.38;0.93;;;;;;;12.04;61.59;100262.13;8589207;33;20440;-77
2021/10/06 11:09:56;;;;;;;2.63;1.25;;;;;;;13.01;59.95;100262.25;8586904;33;20189;-78
2021/10/06 11:15:27;;;;;;;2.10;1.20;;;;;;;13.67;58.14;100253.34;8578805;33;20228;-77
2021/10/06 11:20:48;;;;;;;2.22;1.35;;;;;;;13.38;59.44;100264.22;8579119;33;21158;-77
2021/10/06 11:25:51;;;;;;;2.33;1.42;;;;;;;12.03;61.62;100268.50;8554732;33;20645;-76
2021/10/06 11:30:55;;;;;;;1.20;1.10;;;;;;;11.63;63.31;100263.09;8545394;34;20543;-77
2021/10/06 11:36:14;;;;;;;2.97;1.15;;;;;;;11.85;63.60;100268.28;8546255;34;20780;-77
2021/10/06 11:41:18;;;;;;;1.30;1.20;;;;;;;11.53;64.02;100270.25;8546476;34;20681;-75
2021/10/06 11:46:25;;;;;;;1.60;1.50;;;;;;;11.56;63.74;100284.28;8546719;34;20198;-77
2021/10/06 11:51:51;;;;;;;3.65;1.40;;;;;;;11.78;63.54;100275.19;8546688;34;20546;-78
2021/10/06 11:56:57;;;;;;;2.92;1.50;;;;;;;11.53;64.10;100273.78;8523126;34;20147;-77
2021/10/06 12:02:03;;;;;;;1.40;1.27;;;;;;;11.70;63.47;100275.00;8546951;34;20498;-77
2021/10/06 12:07:11;;;;;;;2.05;1.20;;;;;;;11.79;66.15;100289.50;8547232;34;20517;-77
2021/10/06 12:12:16;;;;;;;3.15;1.40;;;;;;;11.18;68.57;100287.59;8547619;34;20243;-77
2021/10/06 12:17:23;;;;;;;3.28;1.58;;;;;;;10.99;70.03;100304.38;8546320;34;20172;-77
2021/10/06 12:22:35;;;;;;;3.13;1.88;;;;;;;11.12;71.83;100307.78;8519454;34;20611;-77
2021/10/06 12:27:41;;;;;;;2.47;1.63;;;;;;;10.65;76.52;100319.78;8520080;34;20204;-77
2021/10/06 12:32:47;;;;;;;1.20;1.10;;;;;;;9.59;79.80;100330.91;8552504;34;20207;-77
2021/10/06 12:43:24;;;;;;;3.20;2.03;;;;;;;9.43;84.08;100332.06;8498913;34;20275;-79
2021/10/06 12:48:40;;;;;;;5.15;1.95;;;;;;;9.81;84.22;100341.66;8486763;34;20139;-78
2021/10/06 12:53:56;;;;;;;2.20;1.95;;;;;;;10.10;84.14;100341.22;8514276;33;20881;-76
2021/10/06 12:59:02;;;;;;;4.22;1.95;;;;;;;9.85;83.37;100350.34;8588378;34;20158;-77
2021/10/06 13:04:10;;;;;;;2.38;1.77;;;;;;;10.06;83.52;100350.47;8593673;33;20135;-78
2021/10/06 13:09:23;;;;;;;3.22;1.85;;;;;;;9.78;83.87;100357.16;8594323;33;20177;-77
2021/10/06 13:14:34;;;;;;;1.92;1.77;;;;;;;9.70;83.90;100374.69;8561095;33;20266;-77
2021/10/06 13:19:48;;;;;;;1.98;1.83;;;;;;;9.75;83.68;100368.13;8523377;33;20212;-77
2021/10/06 13:24:53;;;;;;;3.10;1.90;;;;;;;10.10;83.09;100374.28;8573661;33;20318;-77
2021/10/06 13:30:00;;;;;;;2.05;1.85;;;;;;;10.09;81.44;100372.59;8590504;34;20237;-78
2021/10/06 13:35:08;;;;;;;3.00;1.90;;;;;;;10.56;80.52;100378.66;8545515;33;20266;-78
2021/10/06 13:40:25;;;;;;;4.47;1.55;;;;;;;10.79;78.45;100384.81;8587744;33;20256;-76
2021/10/06 13:45:29;;;;;;;2.72;1.90;;;;;;;10.87;79.28;100378.81;8549879;33;20384;-78
2021/10/06 13:50:37;;;;;;;3.00;1.60;;;;;;;10.86;79.92;100387.00;8557774;33;21662;-78
2021/10/06 13:55:48;;;;;;;1.98;1.65;;;;;;;10.89;78.85;100389.44;8572011;33;20153;-79
2021/10/06 14:00:52;;;;;;;2.97;2.03;;;;;;;10.83;79.41;100402.44;8575478;33;20256;-77
2021/10/06 14:05:57;;;;;;;7.20;2.38;;;;;;;11.23;78.94;100409.03;8569488;33;20246;-78
2021/10/06 14:11:06;;;;;;;2.78;1.90;;;;;;;11.20;78.66;100403.94;8600613;33;20180;-78
2021/10/06 14:16:26;;;;;;;3.67;1.88;;;;;;;11.19;78.24;100416.53;8609135;33;20461;-77
2021/10/06 14:21:51;;;;;;;1.98;1.70;;;;;;;11.28;78.45;100407.69;8598125;33;20453;-77
2021/10/06 14:27:09;;;;;;;2.72;1.70;;;;;;;11.47;77.15;100408.84;8621265;33;20538;-79
2021/10/06 14:32:18;;;;;;;2.03;1.67;;;;;;;11.32;76.89;100413.66;8588951;33;20222;-77
2021/10/06 14:37:28;;;;;;;2.10;1.60;;;;;;;11.24;77.17;100416.13;8587622;33;20908;-78
2021/10/06 14:42:33;;;;;;;3.33;1.73;;;;;;;11.25;76.81;100426.75;8588026;33;20161;-78
2021/10/06 14:47:36;;;;;;;2.50;1.42;;;;;;;11.16;77.02;100430.22;8584433;33;20150;-76
2021/10/06 14:52:59;;;;;;;1.58;1.48;;;;;;;11.17;77.35;100429.22;8598935;33;20153;-77
2021/10/06 14:58:05;;;;;;;3.42;1.40;;;;;;;11.41;77.36;100438.91;8592747;33;20143;-75
2021/10/06 15:03:09;;;;;;;2.33;1.50;;;;;;;11.01;77.69;100440.34;8620237;33;20163;-78
2021/10/06 15:08:13;;;;;;;2.03;1.55;;;;;;;11.00;78.10;100440.50;8608037;33;20188;-76
2021/10/06 15:13:18;;;;;;;4.13;1.73;;;;;;;10.72;78.47;100442.72;8584291;33;20185;-78
2021/10/06 15:18:21;;;;;;;2.13;1.90;;;;;;;10.70;79.13;100451.91;8559291;34;20274;-77
2021/10/06 15:23:24;;;;;;;2.03;1.40;;;;;;;10.46;78.86;100460.09;8560241;34;20840;-78
2021/10/06 15:28:28;;;;;;;1.75;1.50;;;;;;;10.64;79.30;100464.00;8558970;34;21018;-78
2021/10/06 15:33:35;;;;;;;2.60;1.70;;;;;;;10.54;79.62;100465.72;8560709;34;20189;-78
2021/10/06 15:38:38;;;;;;;1.42;1.33;;;;;;;10.33;80.84;100476.31;8558974;34;20159;-79
2021/10/06 15:43:43;;;;;;;2.22;1.45;;;;;;;10.04;82.42;100470.50;8557506;34;20140;-78
2021/10/06 15:48:47;;;;;;;1.60;1.50;;;;;;;10.12;82.57;100481.50;8556044;34;20194;-79
2021/10/06 15:53:51;;;;;;;3.55;1.60;;;;;;;10.19;82.59;100488.13;8532539;34;20506;-77
2021/10/06 15:58:56;;;;;;;2.42;1.98;;;;;;;10.31;82.77;100489.88;8556063;34;20208;-79
2021/10/06 16:03:59;;;;;;;2.20;1.83;;;;;;;10.12;82.15;100495.81;8559584;34;20285;-78
2021/10/06 16:09:04;;;;;;;2.83;2.38;;;;;;;10.20;81.29;100513.97;8556260;34;20222;-78
2021/10/06 16:14:08;;;;;;;3.13;1.80;;;;;;;9.98;81.73;100511.25;8555451;34;20245;-79
2021/10/06 16:19:12;;;;;;;3.60;2.17;;;;;;;9.96;82.10;100526.63;8557200;34;20194;-78
2021/10/06 16:24:15;;;;;;;4.55;2.58;;;;;;;10.06;82.51;100533.00;8555515;34;20182;-76
2021/10/06 16:29:19;;;;;;;5.25;2.78;;;;;;;10.18;82.59;100532.06;8554827;34;20224;-78
2021/10/06 16:34:23;;;;;;;4.78;2.50;;;;;;;10.31;82.68;100540.88;8553181;34;20236;-77
2021/10/06 16:39:26;;;;;;;4.28;2.38;;;;;;;10.32;82.69;100556.00;8528105;34;20464;-77
2021/10/06 16:44:31;;;;;;;5.18;2.90;;;;;;;10.17;82.16;100546.44;8527302;34;20219;-76
2021/10/06 16:49:34;;;;;;;3.97;2.45;;;;;;;10.06;82.91;100554.47;8530422;34;20265;-78
2021/10/06 16:54:37;;;;;;;3.47;2.47;;;;;;;9.83;83.87;100564.22;8554624;34;20666;-76
2021/10/06 16:59:42;;;;;;;3.72;3.20;;;;;;;9.86;83.77;100570.25;8555391;34;20963;-77
2021/10/06 17:04:45;;;;;;;3.80;2.88;;;;;;;9.81;84.05;100588.47;8557746;34;20971;-78
2021/10/06 17:09:49;;;;;;;3.38;2.83;;;;;;;9.79;84.35;100598.50;8551772;34;20285;-77
2021/10/06 17:14:54;;;;;;;4.43;3.45;;;;;;;9.94;84.03;100601.88;8552916;34;20738;-77
2021/10/06 17:19:57;;;;;;;5.85;3.90;;;;;;;10.03;83.79;100605.69;8549220;34;21836;-77
2021/10/06 17:25:02;;;;;;;6.05;4.32;;;;;;;10.04;83.67;100610.06;8550078;34;20528;-77
2021/10/06 17:30:10;;;;;;;4.18;3.65;;;;;;;10.16;83.89;100618.06;8552037;34;20181;-77
2021/10/06 17:35:16;;;;;;;5.78;3.90;;;;;;;10.21;83.18;100616.88;8551381;34;21690;-77
2021/10/06 17:40:22;;;;;;;4.80;3.58;;;;;;;10.23;83.18;100628.34;8570480;33;20236;-76
2021/10/06 17:45:28;;;;;;;4.30;3.63;;;;;;;10.28;83.16;100637.75;8549615;34;20158;-77
2021/10/06 17:50:33;;;;;;;4.68;3.88;;;;;;;10.19;83.47;100641.13;8571786;33;20593;-78
2021/10/06 17:55:37;;;;;;;6.25;4.93;;;;;;;10.16;83.92;100650.28;8579055;33;20193;-77
2021/10/06 18:00:41;;;;;;;4.90;3.88;;;;;;;10.08;84.14;100650.00;8566627;33;20185;-76
2021/10/06 18:05:45;;;;;;;6.35;4.38;;;;;;;10.05;84.34;100660.13;8562971;33;20189;-77
2021/10/06 18:10:48;;;;;;;6.78;4.30;;;;;;;10.02;84.32;100669.25;8555469;33;20638;-77
2021/10/06 18:15:52;;;;;;;8.32;5.18;;;;;;;10.03;84.39;100662.06;8548984;34;21075;-75
2021/10/06 18:20:57;;;;;;;8.05;5.07;;;;;;;10.10;84.61;100672.22;8592876;33;20181;-77
2021/10/06 18:26:00;;;;;;;6.72;4.97;;;;;;;10.08;84.62;100670.63;8595909;33;20255;-76
2021/10/06 18:31:06;;;;;;;6.40;4.53;;;;;;;10.10;84.45;100684.78;8606788;33;21043;-77
2021/10/06 18:36:10;;;;;;;6.78;4.38;;;;;;;10.19;84.54;100681.41;8607522;33;20720;-76
2021/10/06 18:41:13;;;;;;;6.72;4.75;;;;;;;10.20;84.39;100691.16;8608125;33;20666;-77
2021/10/06 18:46:18;;;;;;;6.85;4.65;;;;;;;10.25;84.39;100702.41;8579500;33;20534;-77
2021/10/06 18:51:21;;;;;;;8.13;4.85;;;;;;;10.28;84.49;100704.88;8575354;33;20161;-77
2021/10/06 18:56:25;;;;;;;6.55;4.30;;;;;;;10.26;84.39;100714.03;8562136;33;21658;-77
2021/10/06 19:01:31;;;;;;;7.32;4.53;;;;;;;10.16;84.63;100712.03;8579957;33;21644;-76
2021/10/06 19:06:35;;;;;;;6.65;4.40;;;;;;;10.15;84.39;100718.38;8572679;33;20690;-77
2021/10/06 19:11:39;;;;;;;6.93;4.15;;;;;;;10.09;84.62;100731.38;8595674;33;20477;-77
2021/10/06 19:16:43;;;;;;;5.93;4.25;;;;;;;10.18;84.81;100730.72;8592534;33;20252;-78
2021/10/06 19:21:46;;;;;;;8.05;4.03;;;;;;;10.11;84.74;100738.34;8550470;33;20412;-77
2021/10/06 19:26:49;;;;;;;5.18;3.88;;;;;;;10.17;84.70;100740.59;8575109;33;20249;-76
2021/10/06 19:31:54;;;;;;;7.75;4.40;;;;;;;10.15;84.83;100755.09;8578359;33;20182;-78
2021/10/06 19:36:58;;;;;;;7.07;4.45;;;;;;;10.10;84.69;100759.94;8567844;33;20633;-77
2021/10/06 19:42:01;;;;;;;7.63;4.55;;;;;;;10.05;84.82;100760.28;8577535;33;20687;-77
2021/10/06 19:47:06;;;;;;;8.13;5.35;;;;;;;10.10;84.88;100771.53;8616433;33;20307;-77
2021/10/06 19:52:12;;;;;;;7.90;5.20;;;;;;;10.07;85.09;100776.28;8597365;33;20193;-77
2021/10/06 19:57:16;;;;;;;7.10;5.07;;;;;;;10.11;85.28;100783.13;8551344;33;20617;-77
2021/10/06 20:02:20;;;;;;;7.00;5.38;;;;;;;10.13;85.19;100787.41;8579656;33;20287;-77
2021/10/06 20:07:24;;;;;;;7.40;5.50;;;;;;;10.18;85.53;100797.84;8567932;33;20161;-77
2021/10/06 20:12:30;;;;;;;8.10;5.50;;;;;;;10.20;85.57;100800.38;8551118;34;20271;-76
2021/10/06 20:17:36;;;;;;;8.88;5.90;;;;;;;10.20;85.60;100806.59;8552668;34;20267;-77
2021/10/06 20:22:40;;;;;;;8.80;5.65;;;;;;;10.27;85.96;100815.09;8532697;34;20209;-78
2021/10/06 20:27:44;;;;;;;7.13;5.22;;;;;;;10.29;85.84;100818.53;8553750;33;20466;-76
2021/10/06 20:32:49;;;;;;;8.30;5.30;;;;;;;10.31;85.56;100817.44;8577324;33;21048;-76
2021/10/06 20:37:58;;;;;;;7.63;5.60;;;;;;;10.30;85.55;100818.41;8582596;33;20740;-77
2021/10/06 20:43:04;;;;;;;7.72;5.50;;;;;;;10.30;85.63;100829.16;8577033;33;20216;-77
2021/10/06 20:48:10;;;;;;;6.80;5.30;;;;;;;10.31;85.64;100825.50;8554518;33;20250;-78
2021/10/06 20:53:14;;;;;;;7.55;5.50;;;;;;;10.36;85.60;100843.94;8597581;33;20204;-77
2021/10/06 20:58:17;;;;;;;7.53;4.60;;;;;;;10.34;85.27;100838.72;8612358;33;20516;-77
2021/10/06 21:03:23;;;;;;;7.63;5.25;;;;;;;10.28;85.20;100840.97;8604745;33;20130;-77
2021/10/06 21:08:27;;;;;;;7.00;4.93;;;;;;;10.29;85.40;100850.75;8570761;33;20244;-77
2021/10/06 21:13:30;;;;;;;6.65;4.90;;;;;;;10.19;85.04;100845.19;8554656;34;20729;-76
2021/10/06 21:18:35;;;;;;;7.82;4.70;;;;;;;10.09;85.00;100853.06;8547682;34;20185;-77
2021/10/06 21:23:41;;;;;;;8.07;5.30;;;;;;;9.94;84.96;100849.63;8549182;34;20276;-77
2021/10/06 21:28:46;;;;;;;6.95;4.75;;;;;;;9.80;84.94;100856.91;8549811;34;20240;-77
2021/10/06 21:33:51;;;;;;;7.32;4.80;;;;;;;9.71;85.26;100872.69;8550010;34;20229;-77
2021/10/06 21:38:54;;;;;;;8.75;5.82;;;;;;;9.62;85.37;100870.63;8549720;34;20374;-77
2021/10/06 21:43:57;;;;;;;7.50;5.72;;;;;;;9.57;85.14;100874.59;8526078;34;21070;-76
2021/10/06 21:49:02;;;;;;;6.78;5.40;;;;;;;9.44;85.35;100896.03;8551220;34;20817;-75
2021/10/06 21:54:05;;;;;;;7.97;5.38;;;;;;;9.35;85.35;100907.38;8550927;34;20256;-77
2021/10/06 21:59:08;;;;;;;8.52;5.05;;;;;;;9.32;85.51;100913.81;8529275;34;21330;-77
2021/10/06 22:04:13;;;;;;;7.45;5.40;;;;;;;9.31;85.62;100917.47;8549559;34;20352;-76
2021/10/06 22:09:16;;;;;;;6.70;4.65;;;;;;;9.22;85.50;100921.63;8525169;34;20190;-76
2021/10/06 22:14:23;;;;;;;6.82;5.20;;;;;;;9.10;85.74;100933.13;8548711;34;20193;-76
2021/10/06 22:19:28;;;;;;;8.35;5.57;;;;;;;9.08;85.64;100940.44;8548846;34;20232;-76
2021/10/06 22:24:31;;;;;;;8.80;5.13;;;;;;;9.17;86.20;100944.34;8549036;34;20235;-76
2021/10/06 22:29:34;;;;;;;8.63;5.63;;;;;;;9.25;86.51;100960.78;8548884;34;20561;-76
2021/10/06 22:34:39;;;;;;;7.90;5.13;;;;;;;9.33;86.32;100963.81;8546815;34;20327;-76
2021/10/06 22:39:42;;;;;;;8.70;5.25;;;;;;;9.34;86.52;100976.22;8524926;34;20186;-77
2021/10/06 22:44:45;;;;;;;11.57;6.50;;;;;;;9.40;86.68;100983.00;8549202;34;20574;-77
2021/10/06 22:49:50;;;;;;;10.23;6.03;;;;;;;9.49;86.66;100991.31;8523824;34;20151;-75
2021/10/06 22:54:53;;;;;;;10.82;6.05;;;;;;;9.56;86.59;100996.25;8547306;34;20672;-76
2021/10/06 22:59:56;;;;;;;8.80;6.03;;;;;;;9.63;86.82;100997.56;8547133;34;20285;-77
2021/10/06 23:05:01;;;;;;;9.30;5.93;;;;;;;9.65;86.78;101006.34;8524733;34;20645;-76
2021/10/06 23:10:05;;;;;;;7.15;5.25;;;;;;;9.67;86.74;101013.34;8548849;34;20235;-77
2021/10/06 23:15:08;;;;;;;9.43;5.68;;;;;;;9.73;86.75;101017.44;8547675;34;20228;-76
2021/10/06 23:20:15;;;;;;;6.03;4.80;;;;;;;9.70;86.85;101018.50;8547746;34;20186;-76
2021/10/06 23:25:18;;;;;;;8.20;5.63;;;;;;;9.72;86.50;101023.78;8547295;34;20522;-76
2021/10/06 23:30:21;;;;;;;8.85;5.53;;;;;;;9.71;86.53;101030.13;8564729;34;20134;-76
2021/10/06 23:35:26;;;;;;;8.65;5.82;;;;;;;9.70;86.53;101033.75;8550722;34;20139;-76
2021/10/06 23:40:29;;;;;;;7.95;5.45;;;;;;;9.71;86.44;101038.16;8552183;34;20482;-77
2021/10/06 23:45:33;;;;;;;9.23;5.82;;;;;;;9.65;86.53;101050.16;8545995;34;20236;-77
2021/10/06 23:50:37;;;;;;;8.73;5.95;;;;;;;9.58;86.44;101045.31;8546337;34;20230;-77
2021/10/06 23:55:41;;;;;;;10.07;5.93;;;;;;;9.57;86.60;101065.03;8545376;34;20635;-76
